sensor_id;sensor_type;location;lat;lon;timestamp;P1;durP1;ratioP1;P2;durP2;ratioP2
37231;SDS011;23125;48.156;15.954;2023-07-13T00:00:44;2.50;;;1.40;;
37231;SDS011;23125;48.156;15.954;2023-07-13T00:03:10;2.35;;;1.15;;
37231;SDS011;23125;48.156;15.954;2023-07-13T00:05:39;3.28;;;1.23;;
37231;SDS011;23125;48.156;15.954;2023-07-13T00:08:06;2.25;;;1.10;;
37231;SDS011;23125;48.156;15.954;2023-07-13T00:10:33;2.10;;;1.15;;
37231;SDS011;23125;48.156;15.954;2023-07-13T00:12:59;2.60;;;1.20;;
37231;SDS011;23125;48.156;15.954;2023-07-13T00:15:26;3.25;;;1.30;;
37231;SDS011;23125;48.156;15.954;2023-07-13T00:17:53;2.40;;;1.20;;
37231;SDS011;23125;48.156;15.954;2023-07-13T00:20:20;2.47;;;1.27;;
37231;SDS011;23125;48.156;15.954;2023-07-13T00:22:48;1.70;;;1.02;;
37231;SDS011;23125;48.156;15.954;2023-07-13T00:25:14;1.88;;;1.08;;
37231;SDS011;23125;48.156;15.954;2023-07-13T00:27:44;3.20;;;0.85;;
37231;SDS011;23125;48.156;15.954;2023-07-13T00:30:10;6.30;;;1.17;;
37231;SDS011;23125;48.156;15.954;2023-07-13T00:32:37;2.58;;;1.02;;
37231;SDS011;23125;48.156;15.954;2023-07-13T00:35:03;2.33;;;0.93;;
37231;SDS011;23125;48.156;15.954;2023-07-13T00:37:29;2.08;;;1.00;;
37231;SDS011;23125;48.156;15.954;2023-07-13T00:39:56;2.85;;;0.90;;
37231;SDS011;23125;48.156;15.954;2023-07-13T00:42:21;1.48;;;1.08;;
37231;SDS011;23125;48.156;15.954;2023-07-13T00:45:03;1.67;;;1.02;;
37231;SDS011;23125;48.156;15.954;2023-07-13T00:47:31;2.92;;;1.55;;
37231;SDS011;23125;48.156;15.954;2023-07-13T00:49:57;3.05;;;1.60;;
37231;SDS011;23125;48.156;15.954;2023-07-13T00:52:24;1.33;;;1.00;;
37231;SDS011;23125;48.156;15.954;2023-07-13T00:54:50;4.20;;;1.63;;
37231;SDS011;23125;48.156;15.954;2023-07-13T00:57:17;3.15;;;1.45;;
37231;SDS011;23125;48.156;15.954;2023-07-13T00:59:47;2.60;;;1.38;;
37231;SDS011;23125;48.156;15.954;2023-07-13T01:02:17;2.13;;;1.10;;
37231;SDS011;23125;48.156;15.954;2023-07-13T01:04:43;4.25;;;1.20;;
37231;SDS011;23125;48.156;15.954;2023-07-13T01:07:09;1.90;;;1.30;;
37231;SDS011;23125;48.156;15.954;2023-07-13T01:09:36;2.85;;;1.20;;
37231;SDS011;23125;48.156;15.954;2023-07-13T01:12:02;3.97;;;1.00;;
37231;SDS011;23125;48.156;15.954;2023-07-13T01:14:29;4.57;;;2.17;;
37231;SDS011;23125;48.156;15.954;2023-07-13T01:16:55;2.70;;;1.10;;
37231;SDS011;23125;48.156;15.954;2023-07-13T01:19:38;1.70;;;1.10;;
37231;SDS011;23125;48.156;15.954;2023-07-13T01:22:11;1.65;;;0.98;;
37231;SDS011;23125;48.156;15.954;2023-07-13T01:24:41;1.58;;;0.90;;
37231;SDS011;23125;48.156;15.954;2023-07-13T01:27:09;1.73;;;1.15;;
37231;SDS011;23125;48.156;15.954;2023-07-13T01:29:37;1.83;;;1.13;;
37231;SDS011;23125;48.156;15.954;2023-07-13T01:32:13;2.53;;;1.30;;
37231;SDS011;23125;48.156;15.954;2023-07-13T01:34:41;1.65;;;0.93;;
37231;SDS011;23125;48.156;15.954;2023-07-13T01:37:08;2.13;;;1.02;;
37231;SDS011;23125;48.156;15.954;2023-07-13T01:39:35;2.70;;;1.38;;
37231;SDS011;23125;48.156;15.954;2023-07-13T01:42:01;3.28;;;1.63;;
37231;SDS011;23125;48.156;15.954;2023-07-13T01:44:27;4.32;;;1.30;;
37231;SDS011;23125;48.156;15.954;2023-07-13T01:46:53;1.70;;;1.33;;
37231;SDS011;23125;48.156;15.954;2023-07-13T01:49:19;1.73;;;0.98;;
37231;SDS011;23125;48.156;15.954;2023-07-13T01:51:45;1.42;;;1.10;;
37231;SDS011;23125;48.156;15.954;2023-07-13T01:54:11;2.63;;;1.33;;
37231;SDS011;23125;48.156;15.954;2023-07-13T01:56:37;2.25;;;1.33;;
37231;SDS011;23125;48.156;15.954;2023-07-13T01:59:03;2.05;;;0.82;;
37231;SDS011;23125;48.156;15.954;2023-07-13T02:01:29;1.77;;;0.93;;
37231;SDS011;23125;48.156;15.954;2023-07-13T02:03:55;3.78;;;1.23;;
37231;SDS011;23125;48.156;15.954;2023-07-13T02:06:21;1.70;;;1.23;;
37231;SDS011;23125;48.156;15.954;2023-07-13T02:08:47;2.40;;;1.13;;
37231;SDS011;23125;48.156;15.954;2023-07-13T02:11:13;1.83;;;1.02;;
37231;SDS011;23125;48.156;15.954;2023-07-13T02:13:39;3.70;;;1.40;;
37231;SDS011;23125;48.156;15.954;2023-07-13T02:16:05;1.67;;;1.10;;
37231;SDS011;23125;48.156;15.954;2023-07-13T02:18:31;1.95;;;0.90;;
37231;SDS011;23125;48.156;15.954;2023-07-13T02:20:57;1.98;;;1.02;;
37231;SDS011;23125;48.156;15.954;2023-07-13T02:23:23;4.10;;;1.20;;
37231;SDS011;23125;48.156;15.954;2023-07-13T02:25:52;3.28;;;1.50;;
37231;SDS011;23125;48.156;15.954;2023-07-13T02:28:21;1.85;;;1.10;;
37231;SDS011;23125;48.156;15.954;2023-07-13T02:30:47;1.92;;;1.23;;
37231;SDS011;23125;48.156;15.954;2023-07-13T02:33:12;1.58;;;1.17;;
37231;SDS011;23125;48.156;15.954;2023-07-13T02:35:38;1.70;;;1.23;;
37231;SDS011;23125;48.156;15.954;2023-07-13T02:38:04;1.80;;;1.13;;
37231;SDS011;23125;48.156;15.954;2023-07-13T02:40:30;1.85;;;1.40;;
37231;SDS011;23125;48.156;15.954;2023-07-13T02:42:58;1.80;;;1.13;;
37231;SDS011;23125;48.156;15.954;2023-07-13T02:45:25;2.25;;;1.30;;
37231;SDS011;23125;48.156;15.954;2023-07-13T02:47:51;1.70;;;1.15;;
37231;SDS011;23125;48.156;15.954;2023-07-13T02:50:17;2.85;;;0.90;;
37231;SDS011;23125;48.156;15.954;2023-07-13T02:52:43;2.05;;;0.95;;
37231;SDS011;23125;48.156;15.954;2023-07-13T02:55:08;1.52;;;1.08;;
37231;SDS011;23125;48.156;15.954;2023-07-13T02:57:35;2.28;;;1.02;;
37231;SDS011;23125;48.156;15.954;2023-07-13T03:00:01;2.92;;;0.90;;
37231;SDS011;23125;48.156;15.954;2023-07-13T03:02:31;1.60;;;0.93;;
37231;SDS011;23125;48.156;15.954;2023-07-13T03:04:58;1.35;;;0.80;;
37231;SDS011;23125;48.156;15.954;2023-07-13T03:07:24;1.77;;;1.00;;
37231;SDS011;23125;48.156;15.954;2023-07-13T03:09:54;2.25;;;1.17;;
37231;SDS011;23125;48.156;15.954;2023-07-13T03:12:23;3.92;;;1.30;;
37231;SDS011;23125;48.156;15.954;2023-07-13T03:14:50;2.15;;;1.20;;
37231;SDS011;23125;48.156;15.954;2023-07-13T03:17:17;2.30;;;1.13;;
37231;SDS011;23125;48.156;15.954;2023-07-13T03:19:43;1.67;;;1.20;;
37231;SDS011;23125;48.156;15.954;2023-07-13T03:22:09;4.10;;;1.40;;
37231;SDS011;23125;48.156;15.954;2023-07-13T03:24:35;2.97;;;1.27;;
37231;SDS011;23125;48.156;15.954;2023-07-13T03:27:03;2.65;;;1.30;;
37231;SDS011;23125;48.156;15.954;2023-07-13T03:29:30;1.88;;;1.35;;
37231;SDS011;23125;48.156;15.954;2023-07-13T03:31:56;1.70;;;1.23;;
37231;SDS011;23125;48.156;15.954;2023-07-13T03:34:22;3.15;;;1.33;;
37231;SDS011;23125;48.156;15.954;2023-07-13T03:36:48;2.28;;;1.15;;
37231;SDS011;23125;48.156;15.954;2023-07-13T03:39:14;4.20;;;1.52;;
37231;SDS011;23125;48.156;15.954;2023-07-13T03:41:40;3.75;;;1.30;;
37231;SDS011;23125;48.156;15.954;2023-07-13T03:44:05;1.90;;;1.05;;
37231;SDS011;23125;48.156;15.954;2023-07-13T03:46:32;3.60;;;1.33;;
37231;SDS011;23125;48.156;15.954;2023-07-13T03:48:59;2.65;;;1.20;;
37231;SDS011;23125;48.156;15.954;2023-07-13T03:51:25;4.03;;;1.65;;
37231;SDS011;23125;48.156;15.954;2023-07-13T03:53:51;3.08;;;1.30;;
37231;SDS011;23125;48.156;15.954;2023-07-13T03:56:17;2.28;;;1.30;;
37231;SDS011;23125;48.156;15.954;2023-07-13T03:58:45;2.28;;;1.35;;
37231;SDS011;23125;48.156;15.954;2023-07-13T04:01:13;2.47;;;1.42;;
37231;SDS011;23125;48.156;15.954;2023-07-13T04:03:41;4.78;;;1.60;;
37231;SDS011;23125;48.156;15.954;2023-07-13T04:06:08;1.92;;;1.45;;
37231;SDS011;23125;48.156;15.954;2023-07-13T04:08:50;3.05;;;1.58;;
37231;SDS011;23125;48.156;15.954;2023-07-13T04:11:18;5.55;;;1.60;;
37231;SDS011;23125;48.156;15.954;2023-07-13T04:13:45;4.00;;;1.65;;
37231;SDS011;23125;48.156;15.954;2023-07-13T04:16:12;3.95;;;1.50;;
37231;SDS011;23125;48.156;15.954;2023-07-13T04:18:39;3.30;;;1.38;;
37231;SDS011;23125;48.156;15.954;2023-07-13T04:21:06;3.60;;;1.52;;
37231;SDS011;23125;48.156;15.954;2023-07-13T04:23:34;3.67;;;1.58;;
37231;SDS011;23125;48.156;15.954;2023-07-13T04:26:01;3.92;;;1.40;;
37231;SDS011;23125;48.156;15.954;2023-07-13T04:28:27;2.47;;;1.48;;
37231;SDS011;23125;48.156;15.954;2023-07-13T04:30:53;2.10;;;1.30;;
37231;SDS011;23125;48.156;15.954;2023-07-13T04:33:20;2.72;;;1.65;;
37231;SDS011;23125;48.156;15.954;2023-07-13T04:35:49;2.72;;;1.52;;
37231;SDS011;23125;48.156;15.954;2023-07-13T04:38:20;2.60;;;1.45;;
37231;SDS011;23125;48.156;15.954;2023-07-13T04:40:47;3.05;;;1.38;;
37231;SDS011;23125;48.156;15.954;2023-07-13T04:43:13;4.13;;;1.38;;
37231;SDS011;23125;48.156;15.954;2023-07-13T04:45:39;2.95;;;1.52;;
37231;SDS011;23125;48.156;15.954;2023-07-13T04:48:06;3.03;;;1.50;;
37231;SDS011;23125;48.156;15.954;2023-07-13T04:50:32;3.10;;;1.55;;
37231;SDS011;23125;48.156;15.954;2023-07-13T04:52:57;4.13;;;1.80;;
37231;SDS011;23125;48.156;15.954;2023-07-13T04:55:24;3.17;;;1.67;;
37231;SDS011;23125;48.156;15.954;2023-07-13T04:57:50;1.90;;;1.52;;
37231;SDS011;23125;48.156;15.954;2023-07-13T05:00:16;2.20;;;1.38;;
37231;SDS011;23125;48.156;15.954;2023-07-13T05:02:45;1.95;;;1.08;;
37231;SDS011;23125;48.156;15.954;2023-07-13T05:05:11;2.97;;;1.83;;
37231;SDS011;23125;48.156;15.954;2023-07-13T05:07:37;2.50;;;1.58;;
37231;SDS011;23125;48.156;15.954;2023-07-13T05:10:03;1.98;;;1.50;;
37231;SDS011;23125;48.156;15.954;2023-07-13T05:12:30;4.20;;;1.60;;
37231;SDS011;23125;48.156;15.954;2023-07-13T05:14:56;2.85;;;1.25;;
37231;SDS011;23125;48.156;15.954;2023-07-13T05:17:22;2.17;;;1.40;;
37231;SDS011;23125;48.156;15.954;2023-07-13T05:19:47;3.38;;;1.35;;
37231;SDS011;23125;48.156;15.954;2023-07-13T05:22:13;1.77;;;1.42;;
37231;SDS011;23125;48.156;15.954;2023-07-13T05:24:39;3.70;;;1.30;;
37231;SDS011;23125;48.156;15.954;2023-07-13T05:27:05;4.10;;;1.50;;
37231;SDS011;23125;48.156;15.954;2023-07-13T05:29:31;2.03;;;1.10;;
37231;SDS011;23125;48.156;15.954;2023-07-13T05:31:57;1.50;;;1.30;;
37231;SDS011;23125;48.156;15.954;2023-07-13T05:34:23;2.22;;;1.55;;
37231;SDS011;23125;48.156;15.954;2023-07-13T05:36:49;1.98;;;1.20;;
37231;SDS011;23125;48.156;15.954;2023-07-13T05:39:16;2.85;;;1.10;;
37231;SDS011;23125;48.156;15.954;2023-07-13T05:41:42;2.67;;;1.48;;
37231;SDS011;23125;48.156;15.954;2023-07-13T05:44:07;3.03;;;1.40;;
37231;SDS011;23125;48.156;15.954;2023-07-13T05:46:34;2.40;;;1.33;;
37231;SDS011;23125;48.156;15.954;2023-07-13T05:48:59;2.53;;;1.38;;
37231;SDS011;23125;48.156;15.954;2023-07-13T05:51:25;2.92;;;1.50;;
37231;SDS011;23125;48.156;15.954;2023-07-13T05:53:51;3.88;;;1.10;;
37231;SDS011;23125;48.156;15.954;2023-07-13T05:56:17;2.28;;;1.40;;
37231;SDS011;23125;48.156;15.954;2023-07-13T05:58:43;2.58;;;1.35;;
37231;SDS011;23125;48.156;15.954;2023-07-13T06:01:10;1.38;;;1.17;;
37231;SDS011;23125;48.156;15.954;2023-07-13T06:03:38;2.42;;;1.50;;
37231;SDS011;23125;48.156;15.954;2023-07-13T06:06:04;2.67;;;1.48;;
37231;SDS011;23125;48.156;15.954;2023-07-13T06:08:31;3.47;;;1.33;;
37231;SDS011;23125;48.156;15.954;2023-07-13T06:11:07;1.60;;;0.95;;
37231;SDS011;23125;48.156;15.954;2023-07-13T06:13:43;4.57;;;1.20;;
37231;SDS011;23125;48.156;15.954;2023-07-13T06:16:11;1.88;;;1.10;;
37231;SDS011;23125;48.156;15.954;2023-07-13T06:18:39;2.72;;;1.10;;
37231;SDS011;23125;48.156;15.954;2023-07-13T06:21:06;3.10;;;1.60;;
37231;SDS011;23125;48.156;15.954;2023-07-13T06:23:37;3.33;;;1.25;;
37231;SDS011;23125;48.156;15.954;2023-07-13T06:26:04;3.60;;;1.50;;
37231;SDS011;23125;48.156;15.954;2023-07-13T06:28:30;2.40;;;1.20;;
37231;SDS011;23125;48.156;15.954;2023-07-13T06:30:57;1.08;;;0.98;;
37231;SDS011;23125;48.156;15.954;2023-07-13T06:33:25;2.20;;;1.23;;
37231;SDS011;23125;48.156;15.954;2023-07-13T06:35:51;3.60;;;1.20;;
37231;SDS011;23125;48.156;15.954;2023-07-13T06:38:20;2.17;;;0.90;;
37231;SDS011;23125;48.156;15.954;2023-07-13T06:40:46;2.88;;;1.17;;
37231;SDS011;23125;48.156;15.954;2023-07-13T06:43:12;2.00;;;1.00;;
37231;SDS011;23125;48.156;15.954;2023-07-13T06:45:42;1.38;;;0.68;;
37231;SDS011;23125;48.156;15.954;2023-07-13T06:48:15;2.55;;;0.60;;
37231;SDS011;23125;48.156;15.954;2023-07-13T06:50:42;2.35;;;0.93;;
37231;SDS011;23125;48.156;15.954;2023-07-13T06:53:09;2.53;;;0.80;;
37231;SDS011;23125;48.156;15.954;2023-07-13T06:55:36;2.30;;;0.70;;
37231;SDS011;23125;48.156;15.954;2023-07-13T06:58:02;1.70;;;0.50;;
37231;SDS011;23125;48.156;15.954;2023-07-13T07:00:31;1.33;;;0.68;;
37231;SDS011;23125;48.156;15.954;2023-07-13T07:02:57;1.63;;;0.80;;
37231;SDS011;23125;48.156;15.954;2023-07-13T07:05:23;1.40;;;0.60;;
37231;SDS011;23125;48.156;15.954;2023-07-13T07:07:49;1.67;;;0.63;;
37231;SDS011;23125;48.156;15.954;2023-07-13T07:10:16;1.38;;;0.70;;
37231;SDS011;23125;48.156;15.954;2023-07-13T07:12:43;2.15;;;0.93;;
37231;SDS011;23125;48.156;15.954;2023-07-13T07:15:09;2.70;;;0.85;;
37231;SDS011;23125;48.156;15.954;2023-07-13T07:17:35;1.98;;;0.80;;
37231;SDS011;23125;48.156;15.954;2023-07-13T07:20:01;2.45;;;0.85;;
37231;SDS011;23125;48.156;15.954;2023-07-13T07:22:28;3.97;;;0.75;;
37231;SDS011;23125;48.156;15.954;2023-07-13T07:24:55;1.55;;;0.70;;
37231;SDS011;23125;48.156;15.954;2023-07-13T07:27:22;2.40;;;0.70;;
37231;SDS011;23125;48.156;15.954;2023-07-13T07:29:49;1.17;;;0.77;;
37231;SDS011;23125;48.156;15.954;2023-07-13T07:32:15;1.73;;;0.80;;
37231;SDS011;23125;48.156;15.954;2023-07-13T07:34:41;1.30;;;0.70;;
37231;SDS011;23125;48.156;15.954;2023-07-13T07:37:09;0.88;;;0.60;;
37231;SDS011;23125;48.156;15.954;2023-07-13T07:39:36;0.93;;;0.60;;
37231;SDS011;23125;48.156;15.954;2023-07-13T07:42:03;1.20;;;0.60;;
37231;SDS011;23125;48.156;15.954;2023-07-13T07:44:30;1.25;;;0.63;;
37231;SDS011;23125;48.156;15.954;2023-07-13T07:46:57;1.35;;;0.60;;
37231;SDS011;23125;48.156;15.954;2023-07-13T07:49:23;0.80;;;0.40;;
37231;SDS011;23125;48.156;15.954;2023-07-13T07:51:50;1.58;;;0.60;;
37231;SDS011;23125;48.156;15.954;2023-07-13T07:54:16;1.85;;;0.60;;
37231;SDS011;23125;48.156;15.954;2023-07-13T07:56:42;2.30;;;0.70;;
37231;SDS011;23125;48.156;15.954;2023-07-13T07:59:09;3.05;;;0.90;;
37231;SDS011;23125;48.156;15.954;2023-07-13T08:01:35;1.55;;;0.68;;
37231;SDS011;23125;48.156;15.954;2023-07-13T08:04:01;1.58;;;0.60;;
37231;SDS011;23125;48.156;15.954;2023-07-13T08:06:27;1.42;;;0.57;;
37231;SDS011;23125;48.156;15.954;2023-07-13T08:08:54;1.20;;;0.60;;
37231;SDS011;23125;48.156;15.954;2023-07-13T08:11:20;0.90;;;0.50;;
37231;SDS011;23125;48.156;15.954;2023-07-13T08:13:47;1.42;;;0.82;;
37231;SDS011;23125;48.156;15.954;2023-07-13T08:16:13;1.88;;;1.25;;
37231;SDS011;23125;48.156;15.954;2023-07-13T08:18:39;1.58;;;0.55;;
37231;SDS011;23125;48.156;15.954;2023-07-13T08:21:05;1.67;;;1.25;;
37231;SDS011;23125;48.156;15.954;2023-07-13T08:23:32;1.30;;;0.77;;
37231;SDS011;23125;48.156;15.954;2023-07-13T08:25:58;1.33;;;0.77;;
37231;SDS011;23125;48.156;15.954;2023-07-13T08:28:27;1.45;;;0.90;;
37231;SDS011;23125;48.156;15.954;2023-07-13T08:30:54;1.67;;;0.75;;
37231;SDS011;23125;48.156;15.954;2023-07-13T08:33:20;1.13;;;1.02;;
37231;SDS011;23125;48.156;15.954;2023-07-13T08:35:49;1.88;;;1.05;;
37231;SDS011;23125;48.156;15.954;2023-07-13T08:38:16;1.75;;;0.90;;
37231;SDS011;23125;48.156;15.954;2023-07-13T08:40:43;1.65;;;0.85;;
37231;SDS011;23125;48.156;15.954;2023-07-13T08:43:22;1.67;;;1.05;;
37231;SDS011;23125;48.156;15.954;2023-07-13T08:46:54;1.50;;;0.90;;
37231;SDS011;23125;48.156;15.954;2023-07-13T08:48:58;2.35;;;1.00;;
37231;SDS011;23125;48.156;15.954;2023-07-13T08:54:09;1.70;;;1.20;;
37231;SDS011;23125;48.156;15.954;2023-07-13T08:56:56;2.90;;;0.90;;
37231;SDS011;23125;48.156;15.954;2023-07-13T08:59:25;1.60;;;1.15;;
37231;SDS011;23125;48.156;15.954;2023-07-13T09:04:23;2.17;;;1.75;;
37231;SDS011;23125;48.156;15.954;2023-07-13T09:12:07;2.00;;;1.80;;
37231;SDS011;23125;48.156;15.954;2023-07-13T09:14:52;2.47;;;1.83;;
37231;SDS011;23125;48.156;15.954;2023-07-13T09:17:22;2.35;;;2.05;;
37231;SDS011;23125;48.156;15.954;2023-07-13T09:19:54;2.15;;;1.95;;
37231;SDS011;23125;48.156;15.954;2023-07-13T09:22:25;3.03;;;2.13;;
37231;SDS011;23125;48.156;15.954;2023-07-13T09:24:55;2.28;;;1.83;;
37231;SDS011;23125;48.156;15.954;2023-07-13T09:27:39;3.05;;;2.25;;
37231;SDS011;23125;48.156;15.954;2023-07-13T09:32:41;4.78;;;2.83;;
37231;SDS011;23125;48.156;15.954;2023-07-13T09:35:10;3.80;;;2.50;;
37231;SDS011;23125;48.156;15.954;2023-07-13T09:37:38;4.18;;;2.80;;
37231;SDS011;23125;48.156;15.954;2023-07-13T09:40:11;2.97;;;2.25;;
37231;SDS011;23125;48.156;15.954;2023-07-13T09:42:53;3.45;;;2.53;;
37231;SDS011;23125;48.156;15.954;2023-07-13T09:45:28;3.28;;;2.60;;
37231;SDS011;23125;48.156;15.954;2023-07-13T09:48:06;2.38;;;2.17;;
37231;SDS011;23125;48.156;15.954;2023-07-13T09:50:37;2.88;;;2.30;;
37231;SDS011;23125;48.156;15.954;2023-07-13T09:53:03;2.88;;;2.00;;
37231;SDS011;23125;48.156;15.954;2023-07-13T09:55:37;3.22;;;1.95;;
37231;SDS011;23125;48.156;15.954;2023-07-13T09:58:06;3.45;;;2.25;;
37231;SDS011;23125;48.156;15.954;2023-07-13T10:00:38;2.22;;;1.83;;
37231;SDS011;23125;48.156;15.954;2023-07-13T10:06:19;3.10;;;2.67;;
37231;SDS011;23125;48.156;15.954;2023-07-13T10:08:51;3.05;;;2.75;;
37231;SDS011;23125;48.156;15.954;2023-07-13T10:11:23;3.72;;;2.72;;
37231;SDS011;23125;48.156;15.954;2023-07-13T10:13:56;4.28;;;3.08;;
37231;SDS011;23125;48.156;15.954;2023-07-13T10:16:28;4.00;;;2.88;;
37231;SDS011;23125;48.156;15.954;2023-07-13T10:19:07;3.38;;;3.00;;
37231;SDS011;23125;48.156;15.954;2023-07-13T10:21:53;3.63;;;2.38;;
37231;SDS011;23125;48.156;15.954;2023-07-13T10:24:32;4.70;;;2.88;;
37231;SDS011;23125;48.156;15.954;2023-07-13T10:27:10;4.65;;;2.97;;
37231;SDS011;23125;48.156;15.954;2023-07-13T10:30:28;4.80;;;2.80;;
37231;SDS011;23125;48.156;15.954;2023-07-13T10:32:35;3.10;;;2.75;;
37231;SDS011;23125;48.156;15.954;2023-07-13T10:35:01;5.70;;;4.30;;
37231;SDS011;23125;48.156;15.954;2023-07-13T10:37:34;3.67;;;2.50;;
37231;SDS011;23125;48.156;15.954;2023-07-13T10:40:12;4.35;;;3.08;;
37231;SDS011;23125;48.156;15.954;2023-07-13T10:42:46;3.45;;;3.15;;
37231;SDS011;23125;48.156;15.954;2023-07-13T10:45:15;4.97;;;2.55;;
37231;SDS011;23125;48.156;15.954;2023-07-13T10:47:44;3.17;;;2.78;;
37231;SDS011;23125;48.156;15.954;2023-07-13T10:50:19;4.03;;;2.55;;
37231;SDS011;23125;48.156;15.954;2023-07-13T10:52:50;3.65;;;2.75;;
37231;SDS011;23125;48.156;15.954;2023-07-13T10:58:40;5.28;;;3.45;;
37231;SDS011;23125;48.156;15.954;2023-07-13T11:03:54;4.30;;;3.20;;
37231;SDS011;23125;48.156;15.954;2023-07-13T11:08:57;3.28;;;2.35;;
37231;SDS011;23125;48.156;15.954;2023-07-13T11:16:41;3.08;;;2.50;;
37231;SDS011;23125;48.156;15.954;2023-07-13T11:24:28;3.00;;;2.70;;
37231;SDS011;23125;48.156;15.954;2023-07-13T11:27:21;3.58;;;2.90;;
37231;SDS011;23125;48.156;15.954;2023-07-13T11:32:50;3.47;;;2.80;;
37231;SDS011;23125;48.156;15.954;2023-07-13T11:35:31;3.90;;;2.67;;
37231;SDS011;23125;48.156;15.954;2023-07-13T11:38:08;2.67;;;2.28;;
37231;SDS011;23125;48.156;15.954;2023-07-13T11:43:41;4.03;;;2.65;;
37231;SDS011;23125;48.156;15.954;2023-07-13T11:46:20;2.83;;;2.35;;
37231;SDS011;23125;48.156;15.954;2023-07-13T11:48:51;4.35;;;2.67;;
37231;SDS011;23125;48.156;15.954;2023-07-13T11:53:53;3.60;;;2.70;;
37231;SDS011;23125;48.156;15.954;2023-07-13T11:56:20;3.60;;;2.63;;
37231;SDS011;23125;48.156;15.954;2023-07-13T11:58:51;5.10;;;2.42;;
37231;SDS011;23125;48.156;15.954;2023-07-13T12:01:20;2.92;;;2.05;;
37231;SDS011;23125;48.156;15.954;2023-07-13T12:03:58;3.13;;;1.85;;
37231;SDS011;23125;48.156;15.954;2023-07-13T12:06:27;3.28;;;2.63;;
37231;SDS011;23125;48.156;15.954;2023-07-13T12:08:57;3.28;;;2.00;;
37231;SDS011;23125;48.156;15.954;2023-07-13T12:11:25;3.65;;;2.22;;
37231;SDS011;23125;48.156;15.954;2023-07-13T12:13:52;3.28;;;2.08;;
37231;SDS011;23125;48.156;15.954;2023-07-13T12:19:00;2.85;;;1.70;;
37231;SDS011;23125;48.156;15.954;2023-07-13T12:21:31;2.10;;;1.90;;
37231;SDS011;23125;48.156;15.954;2023-07-13T12:24:02;4.18;;;1.90;;
37231;SDS011;23125;48.156;15.954;2023-07-13T12:26:29;2.40;;;1.90;;
37231;SDS011;23125;48.156;15.954;2023-07-13T12:28:58;2.90;;;1.83;;
37231;SDS011;23125;48.156;15.954;2023-07-13T12:34:01;2.97;;;2.40;;
37231;SDS011;23125;48.156;15.954;2023-07-13T12:36:41;3.08;;;1.80;;
37231;SDS011;23125;48.156;15.954;2023-07-13T12:39:24;2.47;;;1.85;;
37231;SDS011;23125;48.156;15.954;2023-07-13T12:42:21;2.33;;;1.77;;
37231;SDS011;23125;48.156;15.954;2023-07-13T12:44:56;3.25;;;1.67;;
37231;SDS011;23125;48.156;15.954;2023-07-13T12:47:42;3.60;;;2.08;;
37231;SDS011;23125;48.156;15.954;2023-07-13T12:50:16;4.40;;;1.98;;
37231;SDS011;23125;48.156;15.954;2023-07-13T12:52:44;2.83;;;2.00;;
37231;SDS011;23125;48.156;15.954;2023-07-13T12:55:18;4.57;;;1.98;;
37231;SDS011;23125;48.156;15.954;2023-07-13T12:57:55;4.03;;;2.28;;
37231;SDS011;23125;48.156;15.954;2023-07-13T13:02:58;2.28;;;1.70;;
37231;SDS011;23125;48.156;15.954;2023-07-13T13:05:29;2.40;;;1.60;;
37231;SDS011;23125;48.156;15.954;2023-07-13T13:07:57;2.30;;;1.93;;
37231;SDS011;23125;48.156;15.954;2023-07-13T13:10:22;2.15;;;1.75;;
37231;SDS011;23125;48.156;15.954;2023-07-13T13:12:49;2.67;;;1.63;;
37231;SDS011;23125;48.156;15.954;2023-07-13T13:15:15;2.72;;;1.55;;
37231;SDS011;23125;48.156;15.954;2023-07-13T13:17:42;1.45;;;1.20;;
37231;SDS011;23125;48.156;15.954;2023-07-13T13:20:15;2.40;;;1.58;;
37231;SDS011;23125;48.156;15.954;2023-07-13T13:22:43;2.22;;;1.70;;
37231;SDS011;23125;48.156;15.954;2023-07-13T13:25:12;2.45;;;1.20;;
37231;SDS011;23125;48.156;15.954;2023-07-13T13:27:43;2.08;;;1.27;;
37231;SDS011;23125;48.156;15.954;2023-07-13T13:30:14;2.17;;;1.55;;
37231;SDS011;23125;48.156;15.954;2023-07-13T13:32:42;4.10;;;1.55;;
37231;SDS011;23125;48.156;15.954;2023-07-13T13:35:17;4.50;;;1.63;;
37231;SDS011;23125;48.156;15.954;2023-07-13T13:37:45;2.17;;;1.52;;
37231;SDS011;23125;48.156;15.954;2023-07-13T13:40:16;2.05;;;1.50;;
37231;SDS011;23125;48.156;15.954;2023-07-13T13:42:45;1.98;;;1.40;;
37231;SDS011;23125;48.156;15.954;2023-07-13T13:45:11;3.25;;;1.55;;
37231;SDS011;23125;48.156;15.954;2023-07-13T13:47:38;2.88;;;1.92;;
37231;SDS011;23125;48.156;15.954;2023-07-13T13:50:15;3.17;;;1.70;;
37231;SDS011;23125;48.156;15.954;2023-07-13T13:52:45;1.85;;;1.45;;
37231;SDS011;23125;48.156;15.954;2023-07-13T13:55:11;2.75;;;1.73;;
37231;SDS011;23125;48.156;15.954;2023-07-13T13:57:38;2.53;;;1.33;;
37231;SDS011;23125;48.156;15.954;2023-07-13T14:00:04;3.90;;;1.67;;
37231;SDS011;23125;48.156;15.954;2023-07-13T14:02:31;2.25;;;1.15;;
37231;SDS011;23125;48.156;15.954;2023-07-13T14:04:58;2.58;;;1.25;;
37231;SDS011;23125;48.156;15.954;2023-07-13T14:09:56;1.80;;;1.40;;
37231;SDS011;23125;48.156;15.954;2023-07-13T14:12:24;4.13;;;1.60;;
37231;SDS011;23125;48.156;15.954;2023-07-13T14:14:53;2.50;;;1.40;;
37231;SDS011;23125;48.156;15.954;2023-07-13T14:17:23;3.03;;;1.67;;
37231;SDS011;23125;48.156;15.954;2023-07-13T14:19:52;2.28;;;1.55;;
37231;SDS011;23125;48.156;15.954;2023-07-13T14:22:25;2.00;;;1.60;;
37231;SDS011;23125;48.156;15.954;2023-07-13T14:24:52;3.88;;;1.77;;
37231;SDS011;23125;48.156;15.954;2023-07-13T14:27:19;2.75;;;1.63;;
37231;SDS011;23125;48.156;15.954;2023-07-13T14:29:46;3.78;;;1.77;;
37231;SDS011;23125;48.156;15.954;2023-07-13T14:32:12;2.72;;;1.50;;
37231;SDS011;23125;48.156;15.954;2023-07-13T14:34:38;3.67;;;1.63;;
37231;SDS011;23125;48.156;15.954;2023-07-13T14:37:05;2.70;;;1.30;;
37231;SDS011;23125;48.156;15.954;2023-07-13T14:39:37;2.38;;;1.63;;
37231;SDS011;23125;48.156;15.954;2023-07-13T14:42:03;4.75;;;1.40;;
37231;SDS011;23125;48.156;15.954;2023-07-13T14:44:30;2.53;;;1.70;;
37231;SDS011;23125;48.156;15.954;2023-07-13T14:46:57;3.17;;;1.60;;
37231;SDS011;23125;48.156;15.954;2023-07-13T14:49:31;2.90;;;1.48;;
37231;SDS011;23125;48.156;15.954;2023-07-13T14:54:39;2.72;;;1.63;;
37231;SDS011;23125;48.156;15.954;2023-07-13T14:57:10;3.38;;;1.60;;
37231;SDS011;23125;48.156;15.954;2023-07-13T14:59:37;3.40;;;1.50;;
37231;SDS011;23125;48.156;15.954;2023-07-13T15:02:10;2.33;;;1.55;;
37231;SDS011;23125;48.156;15.954;2023-07-13T15:04:39;2.40;;;1.75;;
37231;SDS011;23125;48.156;15.954;2023-07-13T15:07:07;2.90;;;1.63;;
37231;SDS011;23125;48.156;15.954;2023-07-13T15:09:36;1.90;;;1.40;;
37231;SDS011;23125;48.156;15.954;2023-07-13T15:12:02;2.85;;;1.77;;
37231;SDS011;23125;48.156;15.954;2023-07-13T15:14:30;3.13;;;1.80;;
37231;SDS011;23125;48.156;15.954;2023-07-13T15:16:57;2.22;;;1.52;;
37231;SDS011;23125;48.156;15.954;2023-07-13T15:19:23;3.58;;;1.75;;
37231;SDS011;23125;48.156;15.954;2023-07-13T15:21:51;2.38;;;1.85;;
37231;SDS011;23125;48.156;15.954;2023-07-13T15:24:20;4.40;;;1.60;;
37231;SDS011;23125;48.156;15.954;2023-07-13T15:26:46;2.40;;;1.50;;
37231;SDS011;23125;48.156;15.954;2023-07-13T15:29:14;2.78;;;1.52;;
37231;SDS011;23125;48.156;15.954;2023-07-13T15:31:41;4.18;;;1.67;;
37231;SDS011;23125;48.156;15.954;2023-07-13T15:34:11;2.55;;;1.70;;
37231;SDS011;23125;48.156;15.954;2023-07-13T15:36:39;2.95;;;1.50;;
37231;SDS011;23125;48.156;15.954;2023-07-13T15:39:05;2.53;;;1.38;;